createdAt,value
2023-05-06T00:00:28.697Z,4.50
2023-05-06T00:02:55.413Z,3.60
2023-05-06T00:05:21.956Z,4.35
2023-05-06T00:07:48.380Z,3.95
2023-05-06T00:10:14.828Z,4.28
2023-05-06T00:12:41.182Z,4.07
2023-05-06T00:15:08.128Z,3.72
2023-05-06T00:17:34.674Z,3.95
2023-05-06T00:20:01.041Z,3.58
2023-05-06T00:22:27.356Z,3.35
2023-05-06T00:24:53.660Z,2.92
2023-05-06T00:27:20.026Z,3.40
2023-05-06T00:29:46.338Z,3.10
2023-05-06T00:32:12.747Z,3.05
2023-05-06T00:34:39.103Z,3.38
2023-05-06T00:37:05.492Z,3.20
2023-05-06T00:39:31.955Z,2.97
2023-05-06T00:42:04.310Z,2.90
2023-05-06T00:44:31.801Z,3.47
2023-05-06T00:46:59.344Z,3.10
2023-05-06T00:49:25.775Z,3.50
2023-05-06T00:51:53.694Z,3.17
2023-05-06T00:54:20.336Z,3.08
2023-05-06T00:56:46.895Z,3.10
2023-05-06T00:59:13.399Z,2.95
2023-05-06T01:01:40.563Z,2.58
2023-05-06T01:04:08.600Z,3.15
2023-05-06T01:06:49.326Z,2.88
2023-05-06T01:09:40.335Z,2.95
2023-05-06T01:12:12.359Z,2.50
2023-05-06T01:14:56.118Z,2.40
2023-05-06T01:17:27.786Z,2.42
2023-05-06T01:19:58.519Z,2.50
2023-05-06T01:22:28.497Z,2.95
2023-05-06T01:24:54.807Z,2.38
2023-05-06T01:27:21.750Z,2.60
2023-05-06T01:29:48.392Z,2.50
2023-05-06T01:32:50.405Z,2.90
2023-05-06T01:35:26.945Z,2.22
2023-05-06T01:38:37.207Z,2.60
2023-05-06T01:41:03.922Z,2.42
2023-05-06T01:43:38.010Z,2.83
2023-05-06T01:46:05.895Z,3.20
2023-05-06T01:48:36.209Z,2.53
2023-05-06T01:51:02.890Z,2.67
2023-05-06T01:53:29.184Z,2.60
2023-05-06T01:55:55.535Z,2.83
2023-05-06T01:58:21.911Z,2.80
2023-05-06T02:00:48.241Z,2.80
2023-05-06T02:03:15.027Z,2.75
2023-05-06T02:05:41.590Z,2.58
2023-05-06T02:08:10.465Z,2.60
2023-05-06T02:10:37.089Z,2.40
2023-05-06T02:13:07.596Z,2.45
2023-05-06T02:15:34.044Z,2.65
2023-05-06T02:18:01.424Z,2.40
2023-05-06T02:20:28.005Z,2.67
2023-05-06T02:22:54.359Z,3.17
2023-05-06T02:25:22.749Z,2.53
2023-05-06T02:27:49.069Z,2.60
2023-05-06T02:30:16.451Z,2.60
2023-05-06T02:32:42.911Z,3.00
2023-05-06T02:35:09.869Z,2.97
2023-05-06T02:37:36.381Z,2.63
2023-05-06T02:40:02.726Z,2.90
2023-05-06T02:42:31.637Z,3.10
2023-05-06T02:44:57.998Z,3.80
2023-05-06T02:47:24.392Z,3.78
2023-05-06T02:49:50.768Z,3.28
2023-05-06T02:52:18.284Z,3.20
2023-05-06T02:54:44.587Z,3.10
2023-05-06T02:57:10.894Z,2.70
2023-05-06T02:59:37.258Z,3.35
2023-05-06T03:02:03.563Z,3.15
2023-05-06T03:04:29.979Z,3.47
2023-05-06T03:06:57.269Z,3.72
2023-05-06T03:09:23.670Z,3.38
2023-05-06T03:11:50.034Z,3.53
2023-05-06T03:14:16.893Z,3.88
2023-05-06T03:16:43.640Z,3.63
2023-05-06T03:19:10.161Z,3.33
2023-05-06T03:21:36.683Z,3.75
2023-05-06T03:24:03.241Z,3.08
2023-05-06T03:26:30.469Z,2.83
2023-05-06T03:28:57.497Z,3.20
2023-05-06T03:31:24.506Z,3.03
2023-05-06T03:33:50.939Z,3.22
2023-05-06T03:36:18.034Z,3.75
2023-05-06T03:38:46.668Z,3.10
2023-05-06T03:41:13.006Z,3.45
2023-05-06T03:43:40.100Z,3.40
2023-05-06T03:46:07.746Z,3.35
2023-05-06T03:48:35.728Z,3.80
2023-05-06T03:51:05.639Z,3.70
2023-05-06T03:53:32.413Z,3.47
2023-05-06T03:55:58.981Z,3.53
2023-05-06T03:58:26.262Z,3.95
2023-05-06T04:00:52.978Z,3.67
2023-05-06T04:03:19.401Z,3.85
2023-05-06T04:05:50.577Z,3.67
2023-05-06T04:08:19.865Z,4.10
2023-05-06T04:10:46.352Z,3.97
2023-05-06T04:13:24.126Z,4.18
2023-05-06T04:15:52.839Z,4.30
2023-05-06T04:18:23.763Z,3.50
2023-05-06T04:20:58.083Z,4.25
2023-05-06T04:23:25.211Z,4.20
2023-05-06T04:25:51.698Z,3.75
2023-05-06T04:28:20.593Z,3.72
2023-05-06T04:30:49.723Z,4.30
2023-05-06T04:33:16.462Z,3.95
2023-05-06T04:35:53.550Z,4.00
2023-05-06T04:38:25.556Z,3.72
2023-05-06T04:40:52.541Z,3.85
2023-05-06T04:43:19.309Z,3.10
2023-05-06T04:45:50.863Z,3.13
2023-05-06T04:48:22.646Z,3.60
2023-05-06T04:50:50.837Z,4.00
2023-05-06T04:53:17.767Z,2.92
2023-05-06T04:55:44.317Z,3.20
2023-05-06T04:58:10.792Z,2.60
2023-05-06T05:00:38.152Z,3.40
2023-05-06T05:03:04.747Z,3.65
2023-05-06T05:05:34.173Z,3.20
2023-05-06T05:08:01.332Z,3.60
2023-05-06T05:10:30.200Z,4.10
2023-05-06T05:12:56.696Z,4.07
2023-05-06T05:15:23.728Z,4.20
2023-05-06T05:17:50.601Z,5.18
2023-05-06T05:20:17.727Z,5.13
2023-05-06T05:22:44.098Z,3.28
2023-05-06T05:25:10.684Z,3.10
2023-05-06T05:27:37.097Z,3.80
2023-05-06T05:30:03.860Z,3.40
2023-05-06T05:32:32.750Z,3.53
2023-05-06T05:34:59.061Z,3.35
2023-05-06T05:37:25.440Z,3.20
2023-05-06T05:39:52.344Z,3.17
2023-05-06T05:42:19.873Z,3.33
2023-05-06T05:44:47.054Z,3.88
2023-05-06T05:47:13.494Z,2.90
2023-05-06T05:49:39.827Z,3.17
2023-05-06T05:52:07.277Z,3.17
2023-05-06T05:54:33.830Z,3.20
2023-05-06T05:57:00.800Z,3.60
2023-05-06T05:59:28.765Z,3.00
2023-05-06T06:01:59.752Z,3.30
2023-05-06T06:04:26.187Z,3.88
2023-05-06T06:06:52.621Z,3.30
2023-05-06T06:09:20.042Z,3.45
2023-05-06T06:11:47.504Z,3.28
2023-05-06T06:14:15.237Z,2.92
2023-05-06T06:16:42.031Z,3.38
2023-05-06T06:19:08.632Z,3.42
2023-05-06T06:21:35.839Z,3.47
2023-05-06T06:24:02.517Z,3.53
2023-05-06T06:26:29.674Z,3.60
2023-05-06T06:28:56.042Z,3.40
2023-05-06T06:31:22.439Z,3.70
2023-05-06T06:33:48.778Z,3.65
2023-05-06T06:36:15.113Z,3.92
2023-05-06T06:38:42.062Z,5.20
2023-05-06T06:41:09.143Z,5.20
2023-05-06T06:43:35.806Z,4.15
2023-05-06T06:46:14.611Z,3.90
2023-05-06T06:48:41.013Z,3.63
2023-05-06T06:51:07.382Z,4.38
2023-05-06T06:53:33.777Z,4.70
2023-05-06T06:56:00.119Z,6.70
2023-05-06T06:58:26.518Z,4.95
2023-05-06T07:00:52.902Z,4.22
2023-05-06T07:03:19.634Z,5.15
2023-05-06T07:05:46.397Z,5.00
2023-05-06T07:08:12.746Z,4.65
2023-05-06T07:10:39.108Z,4.10
2023-05-06T07:13:05.608Z,5.28
2023-05-06T07:15:31.967Z,4.90
2023-05-06T07:17:58.344Z,4.53
2023-05-06T07:20:24.881Z,4.35
2023-05-06T07:22:51.249Z,5.47
2023-05-06T07:25:17.620Z,5.70
2023-05-06T07:27:43.993Z,4.72
2023-05-06T07:30:10.656Z,5.07
2023-05-06T07:32:37.078Z,5.80
2023-05-06T07:35:03.663Z,4.93
2023-05-06T07:37:29.985Z,5.10
2023-05-06T07:39:56.703Z,4.18
2023-05-06T07:42:22.988Z,4.15
2023-05-06T07:44:49.354Z,3.92
2023-05-06T07:47:32.021Z,3.90
2023-05-06T07:49:59.116Z,3.75
2023-05-06T07:52:25.943Z,3.50
2023-05-06T07:54:52.957Z,4.50
2023-05-06T07:57:19.319Z,4.72
2023-05-06T07:59:49.840Z,5.03
2023-05-06T08:02:16.466Z,5.53
2023-05-06T08:04:43.208Z,5.60
2023-05-06T08:07:10.507Z,7.40
2023-05-06T08:09:37.024Z,7.68
2023-05-06T08:12:03.533Z,7.15
2023-05-06T08:14:29.930Z,7.93
2023-05-06T08:16:56.255Z,7.15
2023-05-06T08:19:23.103Z,5.95
2023-05-06T08:21:50.326Z,6.03
2023-05-06T08:24:16.686Z,6.00
2023-05-06T08:26:43.042Z,5.35
2023-05-06T08:29:09.528Z,5.43
2023-05-06T08:31:35.872Z,4.70
2023-05-06T08:34:02.316Z,4.78
2023-05-06T08:36:28.823Z,5.53
2023-05-06T08:38:55.198Z,4.75
2023-05-06T08:41:22.290Z,4.10
2023-05-06T08:43:50.281Z,4.20
2023-05-06T08:46:17.300Z,4.70
2023-05-06T08:48:43.632Z,3.47
2023-05-06T08:51:13.814Z,3.78
2023-05-06T08:53:46.674Z,3.05
2023-05-06T08:56:14.865Z,2.45
2023-05-06T08:58:45.268Z,2.45
2023-05-06T09:01:12.058Z,2.88
2023-05-06T09:03:38.621Z,2.70
2023-05-06T09:06:05.056Z,2.05
2023-05-06T09:08:31.374Z,2.38
2023-05-06T09:10:57.694Z,1.60
2023-05-06T09:13:24.535Z,1.88
2023-05-06T09:15:54.158Z,1.85
2023-05-06T09:18:20.821Z,2.05
2023-05-06T09:20:49.182Z,1.60
2023-05-06T09:23:17.515Z,1.63
2023-05-06T09:25:46.130Z,1.50
2023-05-06T09:28:13.848Z,1.65
2023-05-06T09:30:41.634Z,1.65
2023-05-06T09:33:08.878Z,0.93
2023-05-06T09:35:40.205Z,0.85
2023-05-06T09:38:07.721Z,1.40
2023-05-06T09:40:38.580Z,0.85
2023-05-06T09:43:05.649Z,0.93
2023-05-06T09:45:32.585Z,1.25
2023-05-06T09:47:59.136Z,1.23
2023-05-06T09:50:26.407Z,0.70
2023-05-06T09:52:54.453Z,1.70
2023-05-06T09:55:22.704Z,1.10
2023-05-06T09:57:49.889Z,0.90
2023-05-06T10:00:17.334Z,0.90
2023-05-06T10:02:45.563Z,0.98
2023-05-06T10:05:13.302Z,0.90
2023-05-06T10:07:41.902Z,1.00
2023-05-06T10:10:10.960Z,0.85
2023-05-06T10:12:38.126Z,0.90
2023-05-06T10:15:05.207Z,0.88
2023-05-06T10:17:32.573Z,1.25
2023-05-06T10:20:00.935Z,0.95
2023-05-06T10:22:59.435Z,1.50
2023-05-06T10:25:40.331Z,1.00
2023-05-06T10:28:10.817Z,0.80
2023-05-06T10:30:45.542Z,0.90
2023-05-06T10:33:14.391Z,0.77
2023-05-06T10:35:44.203Z,0.70
2023-05-06T10:38:19.558Z,0.60
2023-05-06T10:40:46.540Z,0.80
2023-05-06T10:43:30.409Z,0.70
2023-05-06T10:46:11.836Z,0.60
2023-05-06T10:49:04.709Z,0.90
2023-05-06T10:51:34.561Z,0.80
2023-05-06T10:54:19.267Z,0.90
2023-05-06T10:56:48.557Z,1.10
2023-05-06T10:59:20.326Z,0.77
2023-05-06T11:01:57.142Z,1.30
2023-05-06T11:04:23.825Z,1.20
2023-05-06T11:06:52.894Z,1.15
2023-05-06T11:09:19.429Z,0.75
2023-05-06T11:11:52.105Z,0.70
2023-05-06T11:14:29.830Z,0.57
2023-05-06T11:17:01.440Z,0.80
2023-05-06T11:19:33.274Z,0.82
2023-05-06T11:22:01.315Z,0.85
2023-05-06T11:24:42.899Z,0.50
2023-05-06T11:27:10.593Z,0.68
2023-05-06T11:29:37.440Z,0.93
2023-05-06T11:32:05.534Z,0.70
2023-05-06T11:34:33.129Z,0.55
2023-05-06T11:37:07.192Z,0.63
2023-05-06T11:39:40.377Z,0.50
2023-05-06T11:42:08.603Z,0.90
2023-05-06T11:44:39.480Z,0.75
2023-05-06T11:49:43.210Z,0.70
2023-05-06T11:52:11.074Z,0.70
2023-05-06T11:54:42.173Z,0.65
2023-05-06T11:57:09.311Z,0.60
2023-05-06T11:59:37.811Z,0.60
2023-05-06T12:02:09.373Z,0.40
2023-05-06T12:04:44.070Z,0.50
2023-05-06T12:07:12.969Z,0.60
2023-05-06T12:09:45.687Z,0.40
2023-05-06T12:12:14.901Z,0.45
2023-05-06T12:14:41.617Z,0.60
2023-05-06T12:17:08.147Z,0.52
2023-05-06T12:19:35.136Z,0.60
2023-05-06T12:22:15.050Z,0.52
2023-05-06T12:24:41.564Z,0.60
2023-05-06T12:27:08.060Z,0.70
2023-05-06T12:29:34.378Z,0.40
2023-05-06T12:32:09.157Z,0.63
2023-05-06T12:34:37.683Z,0.80
2023-05-06T12:37:05.137Z,0.70
2023-05-06T12:39:36.263Z,0.50
2023-05-06T12:42:03.190Z,0.50
2023-05-06T12:44:33.254Z,0.50
2023-05-06T12:47:01.502Z,0.47
2023-05-06T12:49:28.041Z,0.40
2023-05-06T12:52:08.318Z,0.30
2023-05-06T12:54:34.652Z,0.73
2023-05-06T12:57:01.371Z,0.63
2023-05-06T12:59:27.875Z,0.50
2023-05-06T13:01:54.242Z,0.60
2023-05-06T13:04:21.910Z,0.50
2023-05-06T13:06:50.209Z,0.40
2023-05-06T13:09:16.889Z,0.57
2023-05-06T13:11:43.394Z,0.40
2023-05-06T13:14:10.816Z,0.45
2023-05-06T13:16:37.765Z,0.50
2023-05-06T13:19:08.221Z,0.90
2023-05-06T13:21:38.221Z,0.80
2023-05-06T13:24:05.967Z,0.70
2023-05-06T13:26:33.222Z,0.95
2023-05-06T13:28:59.573Z,0.68
2023-05-06T13:31:28.185Z,0.50
2023-05-06T13:33:55.411Z,0.70
2023-05-06T13:36:23.208Z,0.60
2023-05-06T13:38:49.964Z,0.47
2023-05-06T13:41:16.406Z,1.02
2023-05-06T13:43:42.965Z,0.85
2023-05-06T13:46:09.621Z,0.70
2023-05-06T13:48:36.030Z,0.63
2023-05-06T13:51:02.495Z,0.65
2023-05-06T13:53:28.802Z,0.90
2023-05-06T13:55:55.160Z,0.95
2023-05-06T13:58:21.496Z,0.90
2023-05-06T14:00:48.600Z,0.50
2023-05-06T14:03:14.940Z,0.70
2023-05-06T14:05:41.420Z,0.50
2023-05-06T14:08:08.215Z,0.73
2023-05-06T14:10:34.554Z,0.93
2023-05-06T14:13:01.067Z,1.33
2023-05-06T14:15:27.634Z,0.80
2023-05-06T14:17:54.165Z,0.52
2023-05-06T14:20:20.650Z,0.77
2023-05-06T14:22:47.963Z,0.77
2023-05-06T14:25:14.416Z,0.60
2023-05-06T14:27:40.945Z,0.60
2023-05-06T14:30:09.736Z,0.60
2023-05-06T14:32:36.979Z,0.60
2023-05-06T14:35:04.312Z,0.70
2023-05-06T14:37:30.709Z,0.85
2023-05-06T14:39:57.553Z,0.88
2023-05-06T14:42:23.931Z,0.70
2023-05-06T14:44:50.594Z,0.80
2023-05-06T14:47:17.320Z,0.68
2023-05-06T14:49:43.680Z,0.82
2023-05-06T14:52:10.003Z,0.68
2023-05-06T14:54:41.982Z,0.63
2023-05-06T14:57:11.718Z,0.90
2023-05-06T14:59:38.533Z,0.60
2023-05-06T15:02:08.507Z,0.63
2023-05-06T15:04:35.446Z,0.95
2023-05-06T15:07:02.678Z,0.80
2023-05-06T15:09:29.022Z,1.08
2023-05-06T15:11:55.381Z,1.10
2023-05-06T15:14:22.722Z,0.95
2023-05-06T15:16:49.284Z,0.90
2023-05-06T15:19:15.749Z,1.40
2023-05-06T15:21:42.170Z,0.75
2023-05-06T15:24:08.779Z,1.00
2023-05-06T15:26:35.360Z,1.00
2023-05-06T15:29:01.841Z,1.10
2023-05-06T15:31:28.352Z,0.98
2023-05-06T15:33:54.718Z,0.70
2023-05-06T15:36:21.111Z,0.90
2023-05-06T15:38:50.756Z,0.75
2023-05-06T15:41:17.497Z,1.10
2023-05-06T15:43:44.382Z,1.13
2023-05-06T15:46:11.578Z,1.13
2023-05-06T15:48:37.921Z,0.95
2023-05-06T15:51:04.390Z,0.93
2023-05-06T15:53:30.813Z,1.20
2023-05-06T15:56:07.244Z,0.82
2023-05-06T15:58:41.799Z,0.88
2023-05-06T16:01:09.269Z,1.08
2023-05-06T16:03:36.618Z,1.20
2023-05-06T16:06:03.358Z,0.80
2023-05-06T16:08:29.977Z,0.90
2023-05-06T16:10:56.279Z,0.90
2023-05-06T16:13:22.704Z,0.90
2023-05-06T16:15:49.263Z,1.70
2023-05-06T16:18:15.708Z,1.58
2023-05-06T16:20:42.029Z,3.17
2023-05-06T16:23:08.460Z,26.83
2023-05-06T16:25:35.059Z,31.70
2023-05-06T16:28:01.379Z,30.58
2023-05-06T16:30:27.796Z,34.63
2023-05-06T16:32:54.238Z,25.40
2023-05-06T16:35:20.742Z,12.57
2023-05-06T16:37:47.248Z,10.38
2023-05-06T16:40:18.355Z,10.02
2023-05-06T16:45:11.534Z,1.77
2023-05-06T16:47:37.969Z,2.25
2023-05-06T16:50:04.702Z,4.15
2023-05-06T16:52:31.082Z,2.92
2023-05-06T16:54:57.406Z,3.80
2023-05-06T16:57:23.729Z,7.65
2023-05-06T16:59:50.375Z,14.98
2023-05-06T17:02:16.851Z,7.68
2023-05-06T17:04:43.257Z,7.90
2023-05-06T17:07:11.044Z,13.32
2023-05-06T17:09:38.210Z,8.90
2023-05-06T17:12:05.058Z,7.22
2023-05-06T17:14:31.418Z,6.25
2023-05-06T17:16:59.351Z,6.45
2023-05-06T17:19:25.833Z,4.47
2023-05-06T17:21:52.121Z,3.10
2023-05-06T17:24:18.465Z,2.70
2023-05-06T17:26:44.816Z,2.15
2023-05-06T17:29:11.109Z,2.50
2023-05-06T17:31:37.416Z,2.20
2023-05-06T17:34:03.751Z,2.00
2023-05-06T17:36:30.107Z,1.75
2023-05-06T17:39:04.588Z,1.35
2023-05-06T17:41:31.491Z,2.22
2023-05-06T17:43:57.820Z,1.60
2023-05-06T17:46:24.198Z,1.55
2023-05-06T17:48:50.615Z,1.20
2023-05-06T17:51:16.933Z,1.20
2023-05-06T17:53:43.216Z,1.05
2023-05-06T17:56:09.569Z,1.80
2023-05-06T17:58:35.953Z,1.88
2023-05-06T18:01:02.756Z,2.58
2023-05-06T18:03:29.179Z,2.00
2023-05-06T18:05:55.730Z,1.90
2023-05-06T18:08:22.073Z,1.90
2023-05-06T18:10:48.429Z,1.70
2023-05-06T18:13:14.865Z,1.52
2023-05-06T18:15:41.255Z,2.00
2023-05-06T18:18:07.605Z,19.75
2023-05-06T18:20:34.006Z,17.00
2023-05-06T18:23:00.346Z,3.83
2023-05-06T18:25:26.642Z,2.72
2023-05-06T18:27:53.002Z,4.65
2023-05-06T18:30:19.349Z,2.90
2023-05-06T18:32:45.721Z,2.25
2023-05-06T18:35:12.277Z,1.60
2023-05-06T18:37:39.114Z,1.52
2023-05-06T18:40:07.561Z,1.70
2023-05-06T18:42:34.670Z,1.95
2023-05-06T18:45:04.659Z,1.83
2023-05-06T18:47:32.033Z,1.70
2023-05-06T18:50:00.494Z,1.52
2023-05-06T18:52:27.107Z,2.30
2023-05-06T18:54:53.433Z,1.70
2023-05-06T18:57:19.887Z,1.40
2023-05-06T18:59:46.233Z,2.17
2023-05-06T19:02:12.558Z,2.35
2023-05-06T19:04:38.931Z,1.65
2023-05-06T19:07:05.362Z,1.30
2023-05-06T19:09:36.605Z,1.67
2023-05-06T19:12:04.079Z,1.20
2023-05-06T19:14:32.223Z,4.50
2023-05-06T19:16:58.583Z,8.63
2023-05-06T19:19:24.897Z,3.40
2023-05-06T19:21:51.252Z,2.80
2023-05-06T19:24:17.585Z,2.20
2023-05-06T19:26:44.972Z,2.17
2023-05-06T19:29:11.420Z,2.15
2023-05-06T19:31:37.981Z,1.77
2023-05-06T19:34:04.591Z,2.28
2023-05-06T19:36:31.556Z,2.53
2023-05-06T19:38:57.856Z,1.90
2023-05-06T19:41:24.395Z,1.63
2023-05-06T19:43:51.193Z,1.80
2023-05-06T19:46:18.388Z,1.55
2023-05-06T19:48:45.892Z,1.40
2023-05-06T19:51:12.189Z,2.40
2023-05-06T19:53:38.658Z,3.17
2023-05-06T19:56:12.647Z,2.65
2023-05-06T19:58:39.528Z,1.98
2023-05-06T20:01:06.023Z,1.98
2023-05-06T20:03:33.064Z,1.83
2023-05-06T20:05:59.579Z,1.73
2023-05-06T20:08:26.033Z,2.13
2023-05-06T20:10:52.713Z,1.92
2023-05-06T20:13:19.122Z,1.95
2023-05-06T20:15:45.742Z,1.90
2023-05-06T20:18:12.115Z,1.60
2023-05-06T20:20:39.808Z,2.63
2023-05-06T20:23:06.372Z,2.47
2023-05-06T20:25:32.930Z,3.28
2023-05-06T20:27:59.674Z,5.88
2023-05-06T20:30:26.409Z,5.35
2023-05-06T20:32:52.833Z,3.40
2023-05-06T20:35:19.241Z,2.60
2023-05-06T20:37:45.631Z,1.95
2023-05-06T20:40:12.519Z,2.25
2023-05-06T20:42:38.831Z,2.08
2023-05-06T20:45:05.856Z,1.73
2023-05-06T20:47:32.179Z,2.10
2023-05-06T20:49:58.522Z,2.30
2023-05-06T20:52:24.873Z,2.42
2023-05-06T20:54:51.232Z,2.17
2023-05-06T20:57:17.640Z,2.15
2023-05-06T20:59:44.312Z,2.90
2023-05-06T21:02:10.727Z,3.35
2023-05-06T21:04:37.265Z,2.90
2023-05-06T21:07:03.556Z,2.47
2023-05-06T21:09:29.900Z,3.28
2023-05-06T21:11:56.456Z,2.47
2023-05-06T21:14:24.631Z,3.10
2023-05-06T21:16:51.699Z,3.50
2023-05-06T21:19:18.334Z,2.33
2023-05-06T21:21:44.902Z,2.70
2023-05-06T21:24:11.904Z,2.42
2023-05-06T21:26:39.278Z,2.50
2023-05-06T21:29:05.581Z,2.33
2023-05-06T21:31:32.042Z,2.60
2023-05-06T21:33:58.997Z,3.00
2023-05-06T21:36:25.900Z,2.83
2023-05-06T21:39:01.716Z,3.30
2023-05-06T21:41:28.103Z,2.75
2023-05-06T21:43:54.789Z,2.50
2023-05-06T21:46:21.118Z,2.35
2023-05-06T21:48:47.505Z,2.55
2023-05-06T21:51:13.821Z,2.05
2023-05-06T21:53:40.206Z,2.38
2023-05-06T21:56:06.519Z,2.22
2023-05-06T21:58:32.805Z,3.40
2023-05-06T22:00:59.132Z,4.32
2023-05-06T22:03:27.468Z,3.22
2023-05-06T22:05:53.823Z,2.90
2023-05-06T22:08:20.197Z,2.20
2023-05-06T22:10:46.586Z,2.20
2023-05-06T22:13:12.956Z,2.35
2023-05-06T22:15:39.563Z,1.90
2023-05-06T22:18:07.126Z,1.85
2023-05-06T22:20:33.631Z,2.35
2023-05-06T22:22:59.985Z,2.25
2023-05-06T22:25:26.289Z,2.20
2023-05-06T22:27:52.637Z,2.42
2023-05-06T22:30:18.964Z,2.60
2023-05-06T22:32:45.295Z,2.50
2023-05-06T22:35:12.066Z,2.70
2023-05-06T22:37:38.571Z,2.33
2023-05-06T22:40:06.978Z,2.03
2023-05-06T22:42:33.399Z,2.40
2023-05-06T22:44:59.735Z,2.53
2023-05-06T22:47:26.123Z,2.15
2023-05-06T22:49:52.448Z,2.33
2023-05-06T22:52:19.307Z,2.30
2023-05-06T22:54:45.680Z,2.60
2023-05-06T22:57:12.088Z,2.25
2023-05-06T22:59:38.501Z,2.75
2023-05-06T23:02:04.814Z,2.10
2023-05-06T23:04:31.242Z,2.45
2023-05-06T23:06:57.704Z,1.80
2023-05-06T23:09:24.066Z,2.17
2023-05-06T23:11:50.467Z,2.50
2023-05-06T23:14:17.179Z,2.10
2023-05-06T23:16:43.518Z,2.65
2023-05-06T23:19:09.824Z,1.85
2023-05-06T23:21:36.189Z,2.13
2023-05-06T23:24:02.580Z,2.13
2023-05-06T23:26:28.938Z,2.35
2023-05-06T23:28:55.625Z,2.20
2023-05-06T23:31:21.986Z,2.35
2023-05-06T23:33:48.255Z,2.00
2023-05-06T23:36:16.026Z,2.42
2023-05-06T23:38:42.340Z,1.95
2023-05-06T23:41:08.669Z,3.13
2023-05-06T23:43:35.062Z,2.72
2023-05-06T23:46:01.453Z,2.80
2023-05-06T23:48:27.786Z,2.15
2023-05-06T23:50:54.494Z,2.40
2023-05-06T23:53:21.075Z,2.33
2023-05-06T23:55:47.712Z,1.75
2023-05-06T23:58:14.320Z,2.38
